createdAt,value
2023-02-04T00:01:29.837Z,102301.31
2023-02-04T00:03:56.225Z,102305.34
2023-02-04T00:06:22.842Z,102300.34
2023-02-04T00:08:49.248Z,102310.44
2023-02-04T00:11:15.694Z,102307.91
2023-02-04T00:13:42.105Z,102313.19
2023-02-04T00:16:08.732Z,102313.81
2023-02-04T00:18:35.215Z,102320.00
2023-02-04T00:21:01.919Z,102319.06
2023-02-04T00:23:28.378Z,102322.34
2023-02-04T00:25:54.785Z,102324.25
2023-02-04T00:28:21.248Z,102330.19
2023-02-04T00:30:47.686Z,102323.34
2023-02-04T00:33:14.087Z,102327.41
2023-02-04T00:35:42.894Z,102319.50
2023-02-04T00:38:09.958Z,102326.63
2023-02-04T00:40:37.325Z,102346.81
2023-02-04T00:43:05.417Z,102342.31
2023-02-04T00:45:32.004Z,102352.94
2023-02-04T00:47:59.315Z,102350.47
2023-02-04T00:50:25.808Z,102356.13
2023-02-04T00:52:52.597Z,102351.50
2023-02-04T00:55:19.291Z,102365.09
2023-02-04T00:57:47.526Z,102363.69
2023-02-04T01:00:15.483Z,102373.31
2023-02-04T01:02:41.973Z,102377.03
2023-02-04T01:05:09.240Z,102383.94
2023-02-04T01:07:35.813Z,102404.91
2023-02-04T01:10:03.474Z,102417.69
2023-02-04T01:12:30.220Z,102418.50
2023-02-04T01:14:56.971Z,102423.00
2023-02-04T01:17:25.058Z,102431.75
2023-02-04T01:19:53.490Z,102434.16
2023-02-04T01:22:20.050Z,102434.53
2023-02-04T01:24:46.819Z,102433.28
2023-02-04T01:27:31.718Z,102454.78
2023-02-04T01:29:58.194Z,102464.84
2023-02-04T01:32:24.749Z,102463.34
2023-02-04T01:34:52.068Z,102465.84
2023-02-04T01:37:18.823Z,102457.69
2023-02-04T01:39:45.311Z,102464.66
2023-02-04T01:42:13.333Z,102469.66
2023-02-04T01:44:40.194Z,102485.72
2023-02-04T01:47:06.639Z,102501.53
2023-02-04T01:49:33.239Z,102508.44
2023-02-04T01:52:00.356Z,102511.38
2023-02-04T01:54:27.315Z,102516.41
2023-02-04T01:56:55.217Z,102503.59
2023-02-04T01:59:23.214Z,102510.00
2023-02-04T02:01:51.974Z,102521.78
2023-02-04T02:04:23.642Z,102534.03
2023-02-04T02:06:53.958Z,102532.06
2023-02-04T02:09:20.960Z,102533.72
2023-02-04T02:11:47.800Z,102540.13
2023-02-04T02:14:14.415Z,102551.47
2023-02-04T02:16:41.302Z,102551.81
2023-02-04T02:19:12.224Z,102555.72
2023-02-04T02:21:46.996Z,102558.34
2023-02-04T02:24:26.156Z,102564.44
2023-02-04T02:26:54.745Z,102572.78
2023-02-04T02:29:24.696Z,102578.53
2023-02-04T02:31:51.322Z,102578.72
2023-02-04T02:34:17.896Z,102574.56
2023-02-04T02:36:45.478Z,102579.53
2023-02-04T02:39:11.980Z,102587.16
2023-02-04T02:41:38.605Z,102587.53
2023-02-04T02:44:05.402Z,102603.03
2023-02-04T02:46:32.063Z,102610.66
2023-02-04T02:48:58.533Z,102610.38
2023-02-04T02:51:25.088Z,102612.69
2023-02-04T02:53:52.038Z,102622.13
2023-02-04T02:56:19.765Z,102637.91
2023-02-04T02:58:46.658Z,102633.88
2023-02-04T03:01:13.426Z,102644.50
2023-02-04T03:03:46.822Z,102640.44
2023-02-04T03:06:17.951Z,102650.53
2023-02-04T03:08:44.939Z,102652.88
2023-02-04T03:11:11.436Z,102658.44
2023-02-04T03:13:38.542Z,102650.38
2023-02-04T03:16:06.267Z,102665.00
2023-02-04T03:18:32.881Z,102671.22
2023-02-04T03:21:05.118Z,102677.63
2023-02-04T03:23:33.882Z,102687.34
2023-02-04T03:26:03.928Z,102683.19
2023-02-04T03:28:31.551Z,102685.06
2023-02-04T03:30:58.683Z,102692.94
2023-02-04T03:33:31.492Z,102696.22
2023-02-04T03:35:58.800Z,102699.78
2023-02-04T03:38:25.261Z,102695.97
2023-02-04T03:40:51.716Z,102695.25
2023-02-04T03:43:18.111Z,102705.00
2023-02-04T03:45:45.879Z,102715.09
2023-02-04T03:48:12.699Z,102720.03
2023-02-04T03:50:39.382Z,102719.22
2023-02-04T03:53:05.926Z,102728.31
2023-02-04T03:55:33.007Z,102721.63
2023-02-04T03:57:59.810Z,102731.91
2023-02-04T04:00:26.237Z,102723.81
2023-02-04T04:02:52.688Z,102726.03
2023-02-04T04:05:19.172Z,102730.28
2023-02-04T04:07:45.726Z,102728.97
2023-02-04T04:10:12.500Z,102736.59
2023-02-04T04:12:39.009Z,102741.53
2023-02-04T04:15:07.224Z,102757.06
2023-02-04T04:17:33.734Z,102760.63
2023-02-04T04:20:00.377Z,102765.78
2023-02-04T04:22:27.429Z,102772.41
2023-02-04T04:24:54.426Z,102779.44
2023-02-04T04:27:21.306Z,102787.38
2023-02-04T04:29:47.721Z,102790.75
2023-02-04T04:32:14.135Z,102796.66
2023-02-04T04:34:40.773Z,102799.66
2023-02-04T04:37:07.162Z,102810.75
2023-02-04T04:39:33.567Z,102824.88
2023-02-04T04:42:00.089Z,102818.16
2023-02-04T04:44:26.614Z,102818.97
2023-02-04T04:46:53.183Z,102811.63
2023-02-04T04:49:19.597Z,102817.66
2023-02-04T04:51:46.023Z,102821.00
2023-02-04T04:54:12.545Z,102820.16
2023-02-04T04:56:38.951Z,102827.56
2023-02-04T04:59:05.386Z,102832.94
2023-02-04T05:01:31.907Z,102840.47
2023-02-04T05:03:58.593Z,102843.31
2023-02-04T05:06:25.418Z,102851.53
2023-02-04T05:08:54.991Z,102853.19
2023-02-04T05:11:21.757Z,102846.84
2023-02-04T05:13:48.306Z,102854.22
2023-02-04T05:16:15.168Z,102847.47
2023-02-04T05:18:42.082Z,102857.72
2023-02-04T05:21:08.566Z,102876.31
2023-02-04T05:23:35.158Z,102878.47
2023-02-04T05:26:01.837Z,102880.66
2023-02-04T05:28:28.518Z,102886.34
2023-02-04T05:30:54.962Z,102882.16
2023-02-04T05:33:21.343Z,102889.19
2023-02-04T05:35:49.852Z,102893.22
2023-02-04T05:38:16.555Z,102900.22
2023-02-04T05:40:42.946Z,102907.09
2023-02-04T05:43:09.390Z,102907.41
2023-02-04T05:45:35.879Z,102906.44
2023-02-04T05:48:02.438Z,102909.47
2023-02-04T05:50:28.968Z,102917.84
2023-02-04T05:53:08.020Z,102919.72
2023-02-04T05:55:34.732Z,102916.50
2023-02-04T05:58:01.274Z,102924.22
2023-02-04T06:00:27.756Z,102925.56
2023-02-04T06:02:54.167Z,102915.81
2023-02-04T06:05:20.851Z,102921.50
2023-02-04T06:07:47.284Z,102936.25
2023-02-04T06:10:13.671Z,102934.03
2023-02-04T06:12:40.047Z,102930.69
2023-02-04T06:15:07.142Z,102932.69
2023-02-04T06:17:33.562Z,102938.88
2023-02-04T06:20:00.044Z,102940.41
2023-02-04T06:22:27.452Z,102951.50
2023-02-04T06:24:53.987Z,102955.16
2023-02-04T06:27:23.285Z,102962.22
2023-02-04T06:29:53.901Z,102970.09
2023-02-04T06:32:21.444Z,102966.75
2023-02-04T06:34:47.869Z,102957.88
2023-02-04T06:37:16.963Z,102962.94
2023-02-04T06:39:43.731Z,102963.00
2023-02-04T06:42:10.135Z,102971.47
2023-02-04T06:44:36.717Z,102976.31
2023-02-04T06:47:03.324Z,102984.88
2023-02-04T06:49:29.790Z,102996.72
2023-02-04T06:51:56.237Z,103006.59
2023-02-04T06:54:22.630Z,103017.63
2023-02-04T06:56:49.215Z,103015.44
2023-02-04T06:59:15.619Z,103013.06
2023-02-04T07:01:42.101Z,103018.59
2023-02-04T07:04:08.605Z,103015.09
2023-02-04T07:06:35.005Z,103015.97
2023-02-04T07:09:02.361Z,103012.31
2023-02-04T07:11:28.876Z,103011.75
2023-02-04T07:13:55.299Z,103018.31
2023-02-04T07:16:21.697Z,103033.72
2023-02-04T07:18:48.104Z,103033.91
2023-02-04T07:21:14.505Z,103038.06
2023-02-04T07:23:41.148Z,103036.34
2023-02-04T07:26:07.522Z,103044.44
2023-02-04T07:28:36.902Z,103049.44
2023-02-04T07:31:04.686Z,103050.91
2023-02-04T07:33:31.178Z,103055.28
2023-02-04T07:35:57.856Z,103051.38
2023-02-04T07:38:24.355Z,103056.06
2023-02-04T07:40:50.756Z,103059.94
2023-02-04T07:43:17.244Z,103068.19
2023-02-04T07:45:43.799Z,103071.53
2023-02-04T07:48:10.872Z,103075.81
2023-02-04T07:50:37.888Z,103086.38
2023-02-04T07:53:04.302Z,103085.06
2023-02-04T07:55:30.814Z,103090.00
2023-02-04T07:57:57.414Z,103089.47
2023-02-04T08:00:24.091Z,103092.63
2023-02-04T08:02:51.036Z,103102.66
2023-02-04T08:05:17.918Z,103104.59
2023-02-04T08:07:44.432Z,103103.41
2023-02-04T08:10:11.664Z,103101.75
2023-02-04T08:12:38.194Z,103098.19
2023-02-04T08:15:07.695Z,103104.28
2023-02-04T08:17:34.480Z,103094.06
2023-02-04T08:20:01.132Z,103095.59
2023-02-04T08:22:27.823Z,103093.25
2023-02-04T08:24:54.268Z,103098.81
2023-02-04T08:27:20.758Z,103112.03
2023-02-04T08:29:47.163Z,103104.00
2023-02-04T08:32:13.558Z,103106.88
2023-02-04T08:34:40.214Z,103110.22
2023-02-04T08:37:06.596Z,103104.84
2023-02-04T08:39:33.016Z,103115.28
2023-02-04T08:41:59.747Z,103129.06
2023-02-04T08:44:26.162Z,103115.53
2023-02-04T08:46:52.620Z,103125.50
2023-02-04T08:49:19.075Z,103122.34
2023-02-04T08:51:46.146Z,103130.31
2023-02-04T08:54:12.544Z,103138.34
2023-02-04T08:56:38.941Z,103141.97
2023-02-04T08:59:05.344Z,103143.06
2023-02-04T09:01:31.743Z,103144.06
2023-02-04T09:03:58.367Z,103151.66
2023-02-04T09:06:24.881Z,103154.53
2023-02-04T09:08:51.311Z,103150.91
2023-02-04T09:11:17.738Z,103160.50
2023-02-04T09:13:44.169Z,103165.41
2023-02-04T09:16:10.816Z,103167.94
2023-02-04T09:18:37.343Z,103167.50
2023-02-04T09:21:04.109Z,103168.84
2023-02-04T09:23:30.700Z,103168.84
2023-02-04T09:25:57.281Z,103177.63
2023-02-04T09:28:23.712Z,103172.59
2023-02-04T09:30:50.171Z,103185.53
2023-02-04T09:33:17.424Z,103191.06
2023-02-04T09:35:43.998Z,103193.91
2023-02-04T09:38:10.434Z,103202.00
2023-02-04T09:40:42.733Z,103194.78
2023-02-04T09:43:13.864Z,103195.81
2023-02-04T09:45:40.643Z,103198.19
2023-02-04T09:48:09.515Z,103200.69
2023-02-04T09:50:37.046Z,103206.59
2023-02-04T09:53:06.398Z,103204.41
2023-02-04T09:55:37.400Z,103212.47
2023-02-04T09:58:13.753Z,103222.41
2023-02-04T10:00:40.171Z,103234.00
2023-02-04T10:03:15.644Z,103236.69
2023-02-04T10:05:42.605Z,103236.19
2023-02-04T10:08:21.283Z,103234.16
2023-02-04T10:10:49.508Z,103244.44
2023-02-04T10:13:22.193Z,103244.59
2023-02-04T10:15:51.465Z,103248.97
2023-02-04T10:18:28.174Z,103233.16
2023-02-04T10:21:13.996Z,103237.03
2023-02-04T10:23:42.271Z,103242.09
2023-02-04T10:26:12.339Z,103234.31
2023-02-04T10:28:42.855Z,103239.03
2023-02-04T10:31:33.594Z,103242.25
2023-02-04T10:34:20.654Z,103230.13
2023-02-04T10:36:49.683Z,103233.31
2023-02-04T10:39:21.549Z,103239.91
2023-02-04T10:41:58.872Z,103242.59
2023-02-04T10:44:31.892Z,103244.91
2023-02-04T10:47:17.331Z,103246.78
2023-02-04T10:50:12.534Z,103246.59
2023-02-04T10:52:41.833Z,103245.22
2023-02-04T10:55:14.318Z,103247.59
2023-02-04T10:57:42.501Z,103245.69
2023-02-04T11:00:15.994Z,103242.13
2023-02-04T11:03:03.747Z,103248.31
2023-02-04T11:05:33.233Z,103242.41
2023-02-04T11:08:25.038Z,103254.19
2023-02-04T11:10:58.033Z,103247.56
2023-02-04T11:13:43.403Z,103249.50
2023-02-04T11:16:12.653Z,103247.56
2023-02-04T11:18:49.542Z,103258.19
2023-02-04T11:21:34.838Z,103258.19
2023-02-04T11:24:16.433Z,103256.22
2023-02-04T11:26:51.276Z,103260.25
2023-02-04T11:29:34.655Z,103256.81
2023-02-04T11:32:23.076Z,103244.06
2023-02-04T11:34:52.868Z,103255.28
2023-02-04T11:37:35.922Z,103244.84
2023-02-04T11:40:20.091Z,103253.00
2023-02-04T11:42:47.721Z,103262.28
2023-02-04T11:45:16.152Z,103263.16
2023-02-04T11:47:43.217Z,103257.88
2023-02-04T11:50:22.049Z,103251.13
2023-02-04T11:52:48.449Z,103256.56
2023-02-04T11:55:14.926Z,103265.22
2023-02-04T11:57:43.257Z,103268.88
2023-02-04T12:00:17.835Z,103269.38
2023-02-04T12:02:50.492Z,103269.59
2023-02-04T12:05:19.396Z,103274.94
2023-02-04T12:07:47.492Z,103275.75
2023-02-04T12:10:16.763Z,103270.91
2023-02-04T12:12:52.025Z,103272.25
2023-02-04T12:15:36.210Z,103270.50
2023-02-04T12:18:08.423Z,103275.97
2023-02-04T12:20:36.470Z,103275.66
2023-02-04T12:23:04.312Z,103274.84
2023-02-04T12:25:31.770Z,103278.00
2023-02-04T12:27:58.710Z,103267.94
2023-02-04T12:30:26.530Z,103276.09
2023-02-04T12:32:53.111Z,103280.28
2023-02-04T12:35:19.884Z,103287.88
2023-02-04T12:37:46.284Z,103276.06
2023-02-04T12:40:18.965Z,103282.97
2023-02-04T12:42:45.413Z,103282.34
2023-02-04T12:45:13.801Z,103290.66
2023-02-04T12:47:40.645Z,103292.41
2023-02-04T12:50:08.532Z,103283.31
2023-02-04T12:52:36.967Z,103285.97
2023-02-04T12:55:05.314Z,103292.88
2023-02-04T12:57:32.982Z,103281.66
2023-02-04T13:00:01.353Z,103287.63
2023-02-04T13:02:29.196Z,103293.25
2023-02-04T13:04:56.843Z,103298.56
2023-02-04T13:07:23.664Z,103300.03
2023-02-04T13:09:50.085Z,103303.28
2023-02-04T13:12:16.565Z,103292.78
2023-02-04T13:14:43.441Z,103295.59
2023-02-04T13:17:10.765Z,103298.97
2023-02-04T13:19:37.330Z,103307.75
2023-02-04T13:22:03.956Z,103304.75
2023-02-04T13:24:30.464Z,103315.53
2023-02-04T13:26:56.908Z,103308.28
2023-02-04T13:29:23.336Z,103315.25
2023-02-04T13:31:50.015Z,103309.13
2023-02-04T13:34:16.500Z,103303.59
2023-02-04T13:36:43.805Z,103301.84
2023-02-04T13:39:10.903Z,103300.16
2023-02-04T13:41:37.784Z,103298.50
2023-02-04T13:44:05.260Z,103298.47
2023-02-04T13:46:32.033Z,103297.06
2023-02-04T13:48:58.913Z,103299.44
2023-02-04T13:51:25.491Z,103296.63
2023-02-04T13:53:52.026Z,103305.56
2023-02-04T13:56:18.461Z,103296.75
2023-02-04T13:58:45.448Z,103296.25
2023-02-04T14:01:13.223Z,103290.31
2023-02-04T14:03:40.309Z,103290.03
2023-02-04T14:06:07.106Z,103291.88
2023-02-04T14:08:33.596Z,103296.59
2023-02-04T14:11:00.333Z,103298.38
2023-02-04T14:13:27.317Z,103295.06
2023-02-04T14:15:53.848Z,103291.06
2023-02-04T14:18:20.905Z,103297.59
2023-02-04T14:20:47.337Z,103301.16
2023-02-04T14:23:13.788Z,103301.94
2023-02-04T14:25:40.396Z,103312.41
2023-02-04T14:28:07.440Z,103315.66
2023-02-04T14:30:34.125Z,103317.19
2023-02-04T14:33:01.361Z,103309.38
2023-02-04T14:35:30.500Z,103308.53
2023-02-04T14:37:57.076Z,103307.22
2023-02-04T14:40:25.798Z,103322.03
2023-02-04T14:42:52.472Z,103316.41
2023-02-04T14:45:19.099Z,103314.72
2023-02-04T14:47:45.510Z,103310.00
2023-02-04T14:50:15.667Z,103318.94
2023-02-04T14:52:42.354Z,103312.53
2023-02-04T14:55:11.686Z,103314.03
2023-02-04T14:57:38.893Z,103314.78
2023-02-04T15:00:06.905Z,103316.63
2023-02-04T15:02:33.370Z,103309.28
2023-02-04T15:04:59.877Z,103302.38
2023-02-04T15:07:26.292Z,103307.44
2023-02-04T15:09:52.715Z,103306.59
2023-02-04T15:12:19.143Z,103308.78
2023-02-04T15:14:45.667Z,103317.03
2023-02-04T15:17:12.900Z,103305.75
2023-02-04T15:19:39.296Z,103304.41
2023-02-04T15:22:05.706Z,103301.72
2023-02-04T15:24:32.156Z,103312.50
2023-02-04T15:26:58.898Z,103307.25
2023-02-04T15:29:25.662Z,103312.16
2023-02-04T15:31:52.251Z,103302.75
2023-02-04T15:34:18.707Z,103306.81
2023-02-04T15:36:45.148Z,103297.88
2023-02-04T15:39:11.596Z,103307.81
2023-02-04T15:41:38.088Z,103306.97
2023-02-04T15:44:05.557Z,103308.16
2023-02-04T15:46:32.907Z,103305.66
2023-02-04T15:49:00.275Z,103316.44
2023-02-04T15:51:26.786Z,103316.75
2023-02-04T15:53:53.330Z,103320.94
2023-02-04T15:56:19.774Z,103326.53
2023-02-04T15:58:46.189Z,103322.81
2023-02-04T16:01:14.636Z,103320.78
2023-02-04T16:03:46.722Z,103324.66
2023-02-04T16:06:13.147Z,103327.19
2023-02-04T16:08:40.036Z,103334.28
2023-02-04T16:11:06.608Z,103325.66
2023-02-04T16:13:33.216Z,103325.16
2023-02-04T16:15:59.721Z,103331.91
2023-02-04T16:18:26.360Z,103336.97
2023-02-04T16:20:52.811Z,103331.06
2023-02-04T16:23:19.236Z,103335.91
2023-02-04T16:25:45.608Z,103324.31
2023-02-04T16:28:12.114Z,103332.53
2023-02-04T16:30:39.299Z,103336.94
2023-02-04T16:33:06.893Z,103337.59
2023-02-04T16:36:03.776Z,103328.69
2023-02-04T16:38:31.243Z,103330.19
2023-02-04T16:40:58.127Z,103325.66
2023-02-04T16:43:24.797Z,103336.25
2023-02-04T16:45:51.889Z,103325.13
2023-02-04T16:48:18.578Z,103329.97
2023-02-04T16:50:45.024Z,103329.28
2023-02-04T16:53:15.736Z,103331.31
2023-02-04T16:55:43.483Z,103336.31
2023-02-04T16:58:11.343Z,103340.75
2023-02-04T17:00:41.736Z,103336.31
2023-02-04T17:03:09.429Z,103343.53
2023-02-04T17:05:36.191Z,103344.69
2023-02-04T17:08:03.166Z,103347.72
2023-02-04T17:10:48.451Z,103353.63
2023-02-04T17:13:14.995Z,103351.75
2023-02-04T17:15:41.505Z,103348.94
2023-02-04T17:18:08.188Z,103351.09
2023-02-04T17:20:34.819Z,103351.88
2023-02-04T17:23:01.472Z,103349.81
2023-02-04T17:25:27.971Z,103353.22
2023-02-04T17:27:55.886Z,103356.75
2023-02-04T17:30:22.518Z,103363.78
2023-02-04T17:32:48.932Z,103362.25
2023-02-04T17:35:17.224Z,103363.38
2023-02-04T17:37:43.904Z,103364.25
2023-02-04T17:40:13.027Z,103368.09
2023-02-04T17:42:40.836Z,103368.25
2023-02-04T17:45:10.552Z,103357.13
2023-02-04T17:47:38.363Z,103364.38
2023-02-04T17:50:07.665Z,103358.69
2023-02-04T17:52:34.361Z,103360.28
2023-02-04T17:55:02.207Z,103356.78
2023-02-04T17:57:28.920Z,103360.13
2023-02-04T17:59:55.480Z,103362.97
2023-02-04T18:02:30.279Z,103354.91
2023-02-04T18:05:05.618Z,103358.22
2023-02-04T18:07:32.067Z,103360.06
2023-02-04T18:10:19.042Z,103360.91
2023-02-04T18:12:45.453Z,103360.75
2023-02-04T18:15:29.574Z,103364.41
2023-02-04T18:18:00.391Z,103367.94
2023-02-04T18:20:27.433Z,103364.06
2023-02-04T18:22:59.072Z,103359.50
2023-02-04T18:25:25.669Z,103361.16
2023-02-04T18:27:52.660Z,103349.88
2023-02-04T18:30:22.066Z,103358.09
2023-02-04T18:32:49.821Z,103355.25
2023-02-04T18:35:31.477Z,103353.72
2023-02-04T18:37:57.926Z,103349.22
2023-02-04T18:40:30.833Z,103354.06
2023-02-04T18:43:24.594Z,103360.09
2023-02-04T18:45:51.755Z,103360.94
2023-02-04T18:48:18.076Z,103368.69
2023-02-04T18:50:46.569Z,103374.88
2023-02-04T18:53:12.886Z,103374.22
2023-02-04T18:55:40.540Z,103379.28
2023-02-04T18:58:36.165Z,103377.13
2023-02-04T19:01:04.379Z,103382.28
2023-02-04T19:03:37.490Z,103394.34
2023-02-04T19:06:16.857Z,103389.28
2023-02-04T19:08:44.773Z,103390.69
2023-02-04T19:11:33.955Z,103389.97
2023-02-04T19:14:04.618Z,103393.00
2023-02-04T19:16:36.634Z,103383.25
2023-02-04T19:19:25.009Z,103393.47
2023-02-04T19:21:51.781Z,103395.19
2023-02-04T19:24:24.434Z,103404.06
2023-02-04T19:26:56.232Z,103395.38
2023-02-04T19:29:22.796Z,103404.06
2023-02-04T19:31:52.825Z,103408.06
2023-02-04T19:34:33.380Z,103401.00
2023-02-04T19:37:00.365Z,103397.41
2023-02-04T19:39:41.505Z,103403.53
2023-02-04T19:42:35.024Z,103407.59
2023-02-04T19:45:13.820Z,103401.00
2023-02-04T19:47:44.953Z,103403.00
2023-02-04T19:50:14.887Z,103393.94
2023-02-04T19:52:48.309Z,103397.94
2023-02-04T19:55:17.717Z,103401.63
2023-02-04T19:57:49.726Z,103396.09
2023-02-04T20:00:28.973Z,103396.63
2023-02-04T20:02:57.540Z,103401.31
2023-02-04T20:05:24.216Z,103394.88
2023-02-04T20:07:50.617Z,103403.25
2023-02-04T20:10:24.612Z,103407.47
2023-02-04T20:12:55.623Z,103401.97
2023-02-04T20:15:25.540Z,103390.72
2023-02-04T20:17:52.814Z,103398.94
2023-02-04T20:20:29.437Z,103394.59
2023-02-04T20:22:58.313Z,103397.50
2023-02-04T20:25:33.966Z,103397.63
2023-02-04T20:28:11.579Z,103393.19
2023-02-04T20:30:38.276Z,103385.13
2023-02-04T20:33:28.367Z,103396.31
2023-02-04T20:36:26.049Z,103397.72
2023-02-04T20:39:16.767Z,103393.56
2023-02-04T20:41:43.311Z,103395.88
2023-02-04T20:44:16.815Z,103395.13
2023-02-04T20:46:43.552Z,103384.63
2023-02-04T20:49:23.708Z,103385.63
2023-02-04T20:51:51.611Z,103381.09
2023-02-04T20:54:18.670Z,103374.88
2023-02-04T20:56:45.480Z,103380.25
2023-02-04T20:59:11.911Z,103369.91
2023-02-04T21:01:41.498Z,103375.13
2023-02-04T21:04:17.107Z,103366.38
2023-02-04T21:06:43.751Z,103364.84
2023-02-04T21:09:22.559Z,103360.59
2023-02-04T21:11:49.278Z,103360.69
2023-02-04T21:14:15.675Z,103357.69
2023-02-04T21:16:42.138Z,103357.88
2023-02-04T21:19:10.000Z,103347.16
2023-02-04T21:21:36.538Z,103350.22
2023-02-04T21:24:04.290Z,103342.53
2023-02-04T21:26:30.855Z,103337.31
2023-02-04T21:28:57.229Z,103342.53
2023-02-04T21:31:23.730Z,103336.94
2023-02-04T21:33:50.172Z,103338.63
2023-02-04T21:36:16.607Z,103340.22
2023-02-04T21:38:43.058Z,103342.00
2023-02-04T21:41:09.551Z,103353.47
2023-02-04T21:43:36.036Z,103352.84
2023-02-04T21:46:02.775Z,103349.13
2023-02-04T21:48:29.348Z,103339.91
2023-02-04T21:50:55.810Z,103345.81
2023-02-04T21:53:22.528Z,103342.59
2023-02-04T21:55:48.897Z,103340.22
2023-02-04T21:58:15.320Z,103348.75
2023-02-04T22:00:41.747Z,103347.38
2023-02-04T22:03:12.874Z,103338.50
2023-02-04T22:05:39.520Z,103341.19
2023-02-04T22:08:06.092Z,103338.97
2023-02-04T22:10:32.525Z,103332.91
2023-02-04T22:12:59.288Z,103321.34
2023-02-04T22:15:25.941Z,103328.09
2023-02-04T22:17:53.655Z,103335.63
2023-02-04T22:20:22.270Z,103336.19
2023-02-04T22:22:49.441Z,103337.78
2023-02-04T22:25:17.579Z,103341.38
2023-02-04T22:27:44.189Z,103336.56
2023-02-04T22:30:12.229Z,103335.94
2023-02-04T22:32:39.398Z,103330.91
2023-02-04T22:35:07.768Z,103336.56
2023-02-04T22:37:35.296Z,103323.50
2023-02-04T22:40:06.129Z,103330.16
2023-02-04T22:42:32.747Z,103330.44
2023-02-04T22:44:59.499Z,103316.78
2023-02-04T22:47:25.963Z,103326.34
2023-02-04T22:49:52.324Z,103324.06
2023-02-04T22:52:18.741Z,103336.78
2023-02-04T22:54:45.175Z,103338.22
2023-02-04T22:57:11.686Z,103341.22
2023-02-04T22:59:38.298Z,103334.31
2023-02-04T23:02:04.840Z,103339.13
2023-02-04T23:04:31.423Z,103332.91
2023-02-04T23:06:58.116Z,103317.13
2023-02-04T23:09:24.598Z,103311.38
2023-02-04T23:11:51.078Z,103328.28
2023-02-04T23:14:17.533Z,103328.28
2023-02-04T23:16:44.102Z,103328.69
2023-02-04T23:19:10.534Z,103336.66
2023-02-04T23:21:37.109Z,103336.66
2023-02-04T23:24:03.619Z,103335.06
2023-02-04T23:26:30.030Z,103326.78
2023-02-04T23:28:58.047Z,103322.66
2023-02-04T23:31:24.680Z,103323.94
2023-02-04T23:33:51.059Z,103331.56
2023-02-04T23:36:17.496Z,103339.31
2023-02-04T23:38:43.910Z,103346.06
2023-02-04T23:41:10.330Z,103341.56
2023-02-04T23:43:36.705Z,103331.03
2023-02-04T23:46:03.529Z,103310.72
2023-02-04T23:48:30.154Z,103311.84
2023-02-04T23:50:59.590Z,103307.34
2023-02-04T23:53:26.061Z,103293.28
2023-02-04T23:55:52.538Z,103294.41
2023-02-04T23:58:19.270Z,103301.31
